Time;durP1;ratioP1;P1;durP2;ratioP2;P2;SDS_P1;SDS_P2;PMS_P1;PMS_P2;Temp;Humidity;BMP_temperature;BMP_pressure;BME280_temperature;BME280_humidity;BME280_pressure;Samples;Min_cycle;Max_cycle;Signal;HPM_P1;HPM_P2
2021/10/27 00:00:07;;;;;;;7.03;4.07;;;;;;;10.21;91.93;101611.84;694185;28;4585;-55
2021/10/27 00:00:34;;;;;;;8.20;4.15;;;;;;;10.24;92.21;101616.25;696040;28;1054;-56
2021/10/27 00:00:54;;;;;;;6.60;4.00;;;;;;;10.21;93.69;101622.31;693649;28;1426;-55
2021/10/27 00:01:14;;;;;;;6.70;3.90;;;;;;;10.19;92.96;101616.22;695648;28;1225;-56
2021/10/27 00:01:35;;;;;;;7.67;4.10;;;;;;;10.19;92.48;101613.59;695497;28;1282;-55
2021/10/27 00:01:55;;;;;;;7.60;3.90;;;;;;;10.19;91.73;101616.22;696270;28;1344;-53
2021/10/27 00:02:15;;;;;;;6.97;4.10;;;;;;;10.21;92.71;101613.59;691895;28;1247;-56
2021/10/27 00:02:36;;;;;;;7.33;4.50;;;;;;;10.20;94.01;101617.06;692844;28;2209;-54
2021/10/27 00:02:56;;;;;;;7.53;4.78;;;;;;;10.22;94.11;101616.22;691080;28;4472;-55
2021/10/27 00:03:17;;;;;;;7.47;4.70;;;;;;;10.23;93.16;101625.84;692447;28;1139;-54
2021/10/27 00:03:37;;;;;;;6.80;4.03;;;;;;;10.22;93.54;101616.22;692449;28;1337;-53
2021/10/27 00:03:57;;;;;;;6.43;4.00;;;;;;;10.23;92.55;101618.00;689855;28;1914;-52
2021/10/27 00:04:18;;;;;;;6.60;4.13;;;;;;;10.22;92.25;101618.84;694755;28;1226;-57
2021/10/27 00:04:38;;;;;;;7.63;4.40;;;;;;;10.21;93.28;101616.22;694499;28;1412;-57
2021/10/27 00:04:59;;;;;;;6.78;4.22;;;;;;;10.19;94.33;101624.03;694981;28;1377;-53
2021/10/27 00:05:20;;;;;;;6.97;4.20;;;;;;;10.17;94.09;101620.53;695059;28;1319;-56
2021/10/27 00:05:40;;;;;;;6.63;4.20;;;;;;;10.15;94.46;101619.63;695281;28;1373;-54
2021/10/27 00:06:00;;;;;;;6.97;4.27;;;;;;;10.18;94.34;101617.06;694561;28;4416;-55
2021/10/27 00:06:21;;;;;;;7.38;4.10;;;;;;;10.19;93.63;101616.22;695391;28;1270;-55
2021/10/27 00:06:41;;;;;;;7.80;4.10;;;;;;;10.19;93.04;101612.69;696052;28;1469;-56
2021/10/27 00:07:02;;;;;;;6.40;4.10;;;;;;;10.20;92.69;101617.97;695652;28;1435;-52
2021/10/27 00:07:23;;;;;;;6.03;4.05;;;;;;;10.21;92.55;101616.22;695465;28;1313;-54
2021/10/27 00:07:44;;;;;;;5.85;3.88;;;;;;;10.20;93.43;101625.81;696235;28;1607;-55
2021/10/27 00:08:04;;;;;;;6.00;3.97;;;;;;;10.19;92.66;101624.03;698395;28;1103;-56
2021/10/27 00:08:25;;;;;;;6.80;4.20;;;;;;;10.19;93.01;101617.91;698131;28;1264;-57
2021/10/27 00:08:45;;;;;;;7.35;4.20;;;;;;;10.19;92.13;101624.03;696882;28;4601;-57
2021/10/27 00:09:06;;;;;;;6.70;4.20;;;;;;;10.21;91.88;101616.22;697792;28;4286;-56
2021/10/27 00:09:26;;;;;;;7.55;4.30;;;;;;;10.22;91.65;101625.81;698090;28;1293;-55
2021/10/27 00:09:47;;;;;;;5.97;4.20;;;;;;;10.21;91.33;101622.31;697820;28;1416;-53
2021/10/27 00:10:09;;;;;;;6.97;4.17;;;;;;;10.21;92.29;101618.84;698236;28;1341;-55
2021/10/27 00:10:30;;;;;;;7.78;4.13;;;;;;;10.21;92.12;101622.31;698423;28;1265;-54
2021/10/27 00:10:50;;;;;;;7.87;4.47;;;;;;;10.22;92.73;101618.84;697609;28;1095;-56
2021/10/27 00:11:11;;;;;;;7.33;4.27;;;;;;;10.21;92.46;101617.09;694279;28;1504;-53
2021/10/27 00:11:32;;;;;;;7.53;4.30;;;;;;;10.25;92.96;101623.25;694725;28;1111;-54
2021/10/27 00:11:52;;;;;;;7.68;4.07;;;;;;;10.25;92.98;101619.75;695229;28;4448;-52
2021/10/27 00:12:15;;;;;;;7.75;4.10;;;;;;;10.24;92.96;101618.88;695479;28;2362;-54
2021/10/27 00:12:36;;;;;;;7.60;4.22;;;;;;;10.22;93.28;101618.84;695845;28;3979;-56
2021/10/27 00:17:31;;;;;;;7.40;4.15;;;;;;;10.29;92.76;101613.72;724103;23;1779;-55
2021/10/27 00:17:51;;;;;;;6.27;3.93;;;;;;;10.29;93.14;101618.94;688911;28;4450;-55
2021/10/27 00:18:12;;;;;;;6.72;3.90;;;;;;;10.30;93.41;101625.91;689295;28;1065;-52
2021/10/27 00:18:32;;;;;;;8.27;4.10;;;;;;;10.31;92.79;101622.44;686307;28;1247;-55
2021/10/27 00:18:53;;;;;;;7.20;4.37;;;;;;;10.31;92.71;101617.22;684764;28;3011;-53
2021/10/27 00:19:14;;;;;;;6.75;3.90;;;;;;;10.33;91.89;101615.50;683776;28;1448;-56
2021/10/27 00:19:34;;;;;;;6.50;3.83;;;;;;;10.32;92.01;101618.97;683847;28;1282;-56
2021/10/27 00:19:54;;;;;;;8.90;4.25;;;;;;;10.31;93.11;101619.81;685544;28;1205;-53
2021/10/27 00:20:15;;;;;;;8.20;4.27;;;;;;;10.30;92.27;101611.13;685347;28;1306;-56
2021/10/27 00:20:35;;;;;;;6.70;4.05;;;;;;;10.30;91.77;101620.66;687013;28;1220;-53
2021/10/27 00:20:56;;;;;;;6.83;4.10;;;;;;;10.29;93.13;101622.41;685787;28;4582;-55
2021/10/27 00:21:16;;;;;;;7.00;4.43;;;;;;;10.27;93.52;101624.13;687035;28;1212;-56
2021/10/27 00:21:36;;;;;;;7.10;4.50;;;;;;;10.26;92.48;101625.00;686687;28;1146;-56
2021/10/27 00:21:57;;;;;;;6.85;4.28;;;;;;;10.27;93.99;101625.88;683945;28;3404;-55
2021/10/27 00:22:17;;;;;;;8.30;4.30;;;;;;;10.25;94.21;101619.75;684254;28;2493;-51
2021/10/27 00:22:39;;;;;;;7.93;4.30;;;;;;;10.25;94.25;101619.75;683253;28;1334;-52
2021/10/27 00:23:00;;;;;;;6.55;4.00;;;;;;;10.25;93.92;101617.16;680968;28;1137;-51
2021/10/27 00:23:20;;;;;;;8.03;3.90;;;;;;;10.26;93.88;101629.34;681760;28;1367;-54
2021/10/27 00:23:41;;;;;;;7.93;4.30;;;;;;;10.24;93.88;101618.88;681528;28;1331;-55
2021/10/27 00:24:01;;;;;;;7.40;4.40;;;;;;;10.26;94.29;101625.00;683987;28;4704;-52
2021/10/27 00:24:22;;;;;;;6.13;4.10;;;;;;;10.26;93.47;101621.50;681846;28;1541;-55
2021/10/27 00:24:42;;;;;;;6.37;4.07;;;;;;;10.25;92.84;101623.25;682210;28;1501;-57
2021/10/27 00:25:03;;;;;;;6.70;4.03;;;;;;;10.25;92.56;101622.38;684589;28;1385;-53
2021/10/27 00:25:23;;;;;;;6.45;4.15;;;;;;;10.24;93.22;101621.47;683982;28;3673;-53
2021/10/27 00:25:44;;;;;;;7.57;4.60;;;;;;;10.25;92.71;101619.75;684076;28;1385;-55
2021/10/27 00:26:04;;;;;;;7.78;4.35;;;;;;;10.28;93.37;101627.63;684125;28;1207;-52
2021/10/27 00:26:25;;;;;;;7.00;4.20;;;;;;;10.28;93.94;101622.41;685316;28;1322;-54
2021/10/27 00:26:45;;;;;;;7.28;4.32;;;;;;;10.26;93.28;101617.16;683687;28;4594;-56
2021/10/27 00:27:09;;;;;;;8.10;4.33;;;;;;;10.27;94.15;101618.03;684949;28;1322;-53
2021/10/27 00:27:30;;;;;;;7.45;4.13;;;;;;;10.26;93.18;101621.50;682672;28;1319;-55
2021/10/27 00:27:50;;;;;;;7.05;4.22;;;;;;;10.25;93.53;101622.38;682045;28;1113;-54
2021/10/27 00:28:11;;;;;;;7.00;4.03;;;;;;;10.24;93.61;101621.47;683057;28;1193;-56
2021/10/27 00:28:31;;;;;;;7.67;4.00;;;;;;;10.23;92.98;101618.00;681218;28;3362;-54
2021/10/27 00:28:52;;;;;;;7.37;4.10;;;;;;;10.28;94.43;101622.41;681670;28;3496;-55
2021/10/27 00:29:12;;;;;;;6.63;4.60;;;;;;;10.27;94.56;101621.50;681525;28;1195;-55
2021/10/27 00:29:34;;;;;;;6.87;4.33;;;;;;;10.28;94.23;101625.00;684876;28;1479;-56
2021/10/27 00:29:54;;;;;;;7.13;3.83;;;;;;;10.27;93.37;101621.50;683930;28;4502;-55
2021/10/27 00:30:15;;;;;;;6.60;3.97;;;;;;;10.31;94.65;101617.22;684529;28;1411;-53
2021/10/27 00:30:35;;;;;;;6.60;4.17;;;;;;;10.37;94.59;101618.19;684740;28;1231;-54
2021/10/27 00:30:55;;;;;;;7.07;4.17;;;;;;;10.39;94.38;101621.69;685325;28;1366;-54
2021/10/27 00:31:16;;;;;;;7.20;4.37;;;;;;;10.41;94.50;101619.09;684209;28;1224;-53
2021/10/27 00:31:36;;;;;;;7.70;4.20;;;;;;;10.42;94.41;101620.84;683743;28;1853;-54
2021/10/27 00:31:56;;;;;;;7.07;4.00;;;;;;;10.39;93.05;101621.69;682156;28;3105;-52
2021/10/27 00:32:17;;;;;;;6.53;4.20;;;;;;;10.39;92.64;101623.44;681298;28;1351;-55
2021/10/27 00:32:37;;;;;;;6.40;4.07;;;;;;;10.39;92.97;101623.44;681308;28;1151;-53
2021/10/27 00:32:58;;;;;;;6.40;3.90;;;;;;;10.38;92.50;101619.06;685076;28;4566;-51
2021/10/27 00:33:18;;;;;;;7.97;4.03;;;;;;;10.36;93.90;101628.63;685491;28;1255;-55
2021/10/27 00:33:40;;;;;;;7.43;4.60;;;;;;;10.33;93.84;101626.81;684098;28;1481;-53
2021/10/27 00:34:00;;;;;;;6.18;3.85;;;;;;;10.31;92.95;101615.47;685277;28;1405;-57
2021/10/27 00:34:20;;;;;;;6.37;4.07;;;;;;;10.30;93.75;101621.56;686816;28;1299;-55
2021/10/27 00:34:41;;;;;;;7.53;4.18;;;;;;;10.29;94.55;101621.56;686566;28;1421;-54
2021/10/27 00:35:02;;;;;;;7.30;4.23;;;;;;;10.28;94.55;101622.41;687690;28;2212;-54
2021/10/27 00:35:23;;;;;;;7.32;4.50;;;;;;;10.26;94.98;101624.09;686642;28;2184;-53
2021/10/27 00:35:44;;;;;;;7.40;4.57;;;;;;;10.25;94.56;101625.00;685249;28;4410;-54
2021/10/27 00:36:07;;;;;;;7.00;4.30;;;;;;;10.25;94.11;101619.75;687198;28;1326;-55
2021/10/27 00:36:27;;;;;;;6.63;4.25;;;;;;;10.25;95.14;101628.47;687671;28;1192;-54
2021/10/27 00:36:47;;;;;;;7.17;4.43;;;;;;;10.23;94.67;101628.44;684135;28;1275;-54
2021/10/27 00:37:08;;;;;;;6.53;3.97;;;;;;;10.22;94.82;101621.47;685484;28;907;-52
2021/10/27 00:37:30;;;;;;;7.67;4.30;;;;;;;10.22;95.84;101628.44;685976;28;1289;-56
2021/10/27 00:37:51;;;;;;;8.00;4.30;;;;;;;10.22;94.83;101628.44;683452;28;1187;-52
2021/10/27 00:38:11;;;;;;;8.27;4.10;;;;;;;10.22;95.33;101620.59;684536;28;3860;-54
2021/10/27 00:38:31;;;;;;;8.00;4.22;;;;;;;10.38;95.77;101624.28;684767;28;1258;-55
2021/10/27 00:38:52;;;;;;;6.80;4.30;;;;;;;10.47;95.21;101624.41;686416;28;4442;-52
2021/10/27 00:39:12;;;;;;;8.55;4.25;;;;;;;10.47;94.08;101626.16;689202;28;1316;-54
2021/10/27 00:39:34;;;;;;;7.07;4.20;;;;;;;10.43;94.09;101621.75;682391;28;1260;-53
2021/10/27 00:39:54;;;;;;;6.85;4.20;;;;;;;10.41;93.48;101621.69;680323;28;1220;-55
2021/10/27 00:40:15;;;;;;;6.85;4.10;;;;;;;10.39;93.34;101626.03;683287;28;1477;-52
2021/10/27 00:40:36;;;;;;;6.90;3.90;;;;;;;10.38;92.97;101619.06;683242;28;1279;-52
2021/10/27 00:40:56;;;;;;;7.23;3.87;;;;;;;10.36;93.13;101626.03;682192;28;1085;-52
2021/10/27 00:41:16;;;;;;;8.10;4.30;;;;;;;10.37;94.54;101623.41;682779;28;3123;-53
2021/10/27 00:41:37;;;;;;;8.38;4.43;;;;;;;10.35;95.01;101626.88;687098;28;3517;-53
2021/10/27 00:41:57;;;;;;;7.30;4.30;;;;;;;10.30;95.00;101621.56;686506;28;4383;-54
2021/10/27 00:42:18;;;;;;;6.35;4.13;;;;;;;10.44;95.24;101624.38;687157;28;2412;-52
2021/10/27 00:42:38;;;;;;;8.33;4.30;;;;;;;10.63;94.55;101628.03;687279;28;1064;-53
2021/10/27 00:42:59;;;;;;;9.48;4.30;;;;;;;10.59;93.08;101628.88;687326;28;918;-52
2021/10/27 00:43:19;;;;;;;8.50;4.30;;;;;;;10.58;93.81;101621.91;687624;28;1441;-55
2021/10/27 00:43:40;;;;;;;7.50;4.10;;;;;;;10.54;93.07;101622.72;688867;28;989;-56
2021/10/27 00:44:00;;;;;;;6.70;3.67;;;;;;;10.50;92.68;101626.16;684279;28;1922;-56
2021/10/27 00:44:25;;;;;;;6.33;3.50;;;;;;;10.46;91.96;101620.03;684698;28;1204;-56
2021/10/27 00:44:46;;;;;;;5.90;3.60;;;;;;;10.45;91.94;101625.22;683755;28;4649;-52
2021/10/27 00:45:07;;;;;;;6.70;3.88;;;;;;;10.43;92.81;101622.59;683952;28;1236;-53
2021/10/27 00:45:27;;;;;;;6.47;3.83;;;;;;;10.41;92.24;101620.84;683681;28;1309;-53
2021/10/27 00:45:47;;;;;;;6.97;4.03;;;;;;;10.41;92.51;101626.06;685273;28;1120;-54
2021/10/27 00:46:17;;;;;;;6.57;4.00;;;;;;;10.39;94.24;101626.91;687023;28;1282;-53
2021/10/27 00:46:38;;;;;;;8.45;4.50;;;;;;;10.38;94.43;101629.50;685237;28;1472;-52
2021/10/27 00:47:11;;;;;;;6.40;4.07;;;;;;;10.35;93.94;101619.03;685815;28;1405;-57
2021/10/27 00:47:32;;;;;;;8.25;4.00;;;;;;;10.33;93.77;101623.34;685949;28;940;-52
2021/10/27 00:47:52;;;;;;;8.17;3.70;;;;;;;10.33;93.53;101618.13;684121;28;4379;-56
2021/10/27 00:48:13;;;;;;;7.28;4.15;;;;;;;10.31;93.07;101623.28;684500;28;4604;-52
2021/10/27 00:48:37;;;;;;;6.97;4.23;;;;;;;10.32;92.78;101624.19;686927;28;1224;-54
2021/10/27 00:48:58;;;;;;;6.93;3.88;;;;;;;10.35;93.13;101619.03;686436;28;1139;-52
2021/10/27 00:49:19;;;;;;;7.50;4.00;;;;;;;10.36;92.47;101618.19;688020;28;1417;-53
2021/10/27 00:49:43;;;;;;;7.50;4.00;;;;;;;10.36;92.38;101626.03;687310;28;3463;-53
2021/10/27 00:50:04;;;;;;;8.15;3.90;;;;;;;10.35;92.71;101624.25;687080;28;1251;-54
2021/10/27 00:50:25;;;;;;;7.63;4.00;;;;;;;10.33;92.55;101618.97;687332;28;1428;-56
2021/10/27 00:50:45;;;;;;;6.15;3.63;;;;;;;10.35;93.41;101619.03;687933;28;4508;-53
2021/10/27 00:51:05;;;;;;;6.77;4.10;;;;;;;10.32;94.78;101618.97;687150;28;3984;-56
2021/10/27 00:51:26;;;;;;;7.63;4.60;;;;;;;10.40;94.97;101622.59;687827;28;3643;-53
2021/10/27 00:51:46;;;;;;;7.68;4.20;;;;;;;10.53;94.91;101624.44;686710;28;1258;-54
2021/10/27 00:52:10;;;;;;;9.17;4.30;;;;;;;10.67;94.33;101621.13;687152;28;1198;-56
2021/10/27 00:52:30;;;;;;;6.15;4.10;;;;;;;10.63;93.47;101621.94;687271;28;1144;-55
2021/10/27 00:52:51;;;;;;;6.25;3.85;;;;;;;10.58;92.05;101621.91;684001;28;1151;-56
2021/10/27 00:53:11;;;;;;;5.53;3.70;;;;;;;10.55;91.68;101624.50;684389;28;1378;-54
2021/10/27 00:53:32;;;;;;;6.03;3.88;;;;;;;10.52;93.46;101620.09;683884;28;1208;-53
2021/10/27 00:53:52;;;;;;;6.63;3.90;;;;;;;10.49;92.38;101621.78;681207;28;4458;-51
2021/10/27 00:54:15;;;;;;;7.35;4.13;;;;;;;10.46;91.78;101617.41;681831;28;3074;-54
2021/10/27 00:54:36;;;;;;;7.20;4.10;;;;;;;10.45;93.44;101627.84;682420;28;3916;-53
2021/10/27 00:54:58;;;;;;;6.22;3.95;;;;;;;10.42;92.62;101625.22;683827;28;1224;-56
2021/10/27 00:55:19;;;;;;;6.43;3.90;;;;;;;10.40;92.25;101622.59;684892;28;1604;-55
2021/10/27 00:55:39;;;;;;;6.63;3.97;;;;;;;10.41;92.16;101628.66;683567;28;1291;-53
2021/10/27 00:56:00;;;;;;;6.63;3.97;;;;;;;10.38;91.97;101622.56;684860;28;1868;-52
2021/10/27 00:56:20;;;;;;;6.45;3.80;;;;;;;10.38;92.33;101626.91;683914;28;1437;-54
2021/10/27 00:56:41;;;;;;;8.13;4.07;;;;;;;10.36;92.65;101624.28;684457;28;1391;-56
2021/10/27 00:57:02;;;;;;;6.90;3.78;;;;;;;10.36;92.08;101620.78;684036;28;4435;-52
2021/10/27 00:57:23;;;;;;;7.15;4.00;;;;;;;10.36;93.13;101620.78;684206;28;1430;-53
2021/10/27 00:57:44;;;;;;;6.40;3.78;;;;;;;10.36;92.03;101620.78;686789;28;3437;-53
2021/10/27 00:58:05;;;;;;;7.83;4.20;;;;;;;10.36;93.49;101626.03;687443;28;1309;-52
2021/10/27 00:58:25;;;;;;;7.57;4.28;;;;;;;10.35;94.17;101621.63;684229;28;1413;-56
2021/10/27 00:58:46;;;;;;;7.45;3.85;;;;;;;10.33;94.24;101621.59;684441;28;1085;-56
2021/10/27 00:59:07;;;;;;;7.22;3.80;;;;;;;10.31;95.30;101623.28;684976;28;1283;-55
2021/10/27 00:59:28;;;;;;;7.30;3.80;;;;;;;10.31;95.46;101625.03;683991;28;1240;-53
2021/10/27 00:59:49;;;;;;;7.13;3.72;;;;;;;10.30;95.18;101621.56;684109;28;4452;-54
2021/10/27 01:00:10;;;;;;;6.47;3.90;;;;;;;10.28;95.86;101623.28;684249;28;1243;-53
2021/10/27 01:00:30;;;;;;;8.18;4.20;;;;;;;10.35;95.25;101626.88;685695;28;1325;-54
2021/10/27 01:00:50;;;;;;;7.57;4.30;;;;;;;10.33;94.34;101620.72;687007;28;3625;-55
2021/10/27 01:01:11;;;;;;;6.90;4.17;;;;;;;10.32;95.56;101618.97;688395;28;1107;-55
2021/10/27 01:01:31;;;;;;;7.00;4.10;;;;;;;10.31;95.84;101619.81;686800;28;1143;-52
2021/10/27 01:01:53;;;;;;;6.50;4.00;;;;;;;10.32;95.29;101624.19;687394;28;1252;-56
2021/10/27 01:02:16;;;;;;;7.00;3.90;;;;;;;10.31;94.50;101625.91;687790;28;1346;-52
2021/10/27 01:02:37;;;;;;;6.88;4.15;;;;;;;10.31;94.68;101627.66;687427;28;1255;-55
2021/10/27 01:02:59;;;;;;;7.25;4.10;;;;;;;10.29;94.61;101625.03;685354;28;5048;-54
2021/10/27 01:03:20;;;;;;;5.75;3.70;;;;;;;10.29;94.44;101621.56;684853;28;1437;-52
2021/10/27 01:03:40;;;;;;;6.38;3.78;;;;;;;10.28;94.87;101623.28;686363;28;1272;-56
2021/10/27 01:04:01;;;;;;;7.33;4.20;;;;;;;10.27;93.98;101625.88;685714;28;2014;-55
2021/10/27 01:04:23;;;;;;;6.35;3.88;;;;;;;10.28;93.19;101622.41;684454;28;4170;-55
2021/10/27 01:04:45;;;;;;;6.20;3.63;;;;;;;10.28;93.71;101618.03;685066;28;1087;-53
2021/10/27 01:05:07;;;;;;;7.45;3.92;;;;;;;10.29;93.89;101626.78;687904;28;1092;-54
2021/10/27 01:05:27;;;;;;;8.38;4.05;;;;;;;10.29;94.32;101621.56;687819;28;1985;-54
2021/10/27 01:05:48;;;;;;;6.53;3.80;;;;;;;10.30;94.97;101624.19;687149;28;5318;-56
2021/10/27 01:06:08;;;;;;;6.33;3.97;;;;;;;10.42;95.27;101620.84;687773;28;1259;-55
2021/10/27 01:06:29;;;;;;;7.40;4.00;;;;;;;10.42;95.76;101623.47;688394;28;934;-56
2021/10/27 01:06:50;;;;;;;6.35;3.95;;;;;;;10.39;95.84;101620.81;687758;28;1089;-53
2021/10/27 01:07:10;;;;;;;6.13;4.22;;;;;;;10.35;95.43;101616.41;687447;28;1850;-53
2021/10/27 01:07:31;;;;;;;6.27;3.93;;;;;;;10.34;94.70;101623.38;687861;28;3695;-55
2021/10/27 01:07:52;;;;;;;5.63;3.70;;;;;;;10.34;94.23;101622.47;687916;28;2370;-54
2021/10/27 01:08:13;;;;;;;5.57;3.50;;;;;;;10.32;95.66;101624.19;684818;28;1541;-57
2021/10/27 01:08:34;;;;;;;7.00;3.92;;;;;;;10.30;95.93;101618.06;686007;28;1346;-53
2021/10/27 01:08:55;;;;;;;6.10;3.53;;;;;;;10.29;94.91;101618.94;683676;28;5347;-53
2021/10/27 01:09:17;;;;;;;5.45;3.33;;;;;;;10.29;94.42;101618.94;684445;28;1294;-53
2021/10/27 01:09:38;;;;;;;5.95;3.40;;;;;;;10.28;93.84;101618.03;684788;28;1516;-54
2021/10/27 01:09:58;;;;;;;6.90;3.50;;;;;;;10.30;93.91;101620.66;686368;28;1397;-52
2021/10/27 01:10:19;;;;;;;7.15;3.90;;;;;;;10.30;95.28;101615.44;688084;28;1278;-55
2021/10/27 01:10:40;;;;;;;6.40;4.00;;;;;;;10.29;94.86;101618.94;684119;28;3611;-56
2021/10/27 01:11:03;;;;;;;6.38;3.85;;;;;;;10.28;94.78;101619.78;685270;28;1477;-55
2021/10/27 01:11:24;;;;;;;7.43;3.90;;;;;;;10.27;95.35;101623.25;683789;28;1374;-53
2021/10/27 01:11:48;;;;;;;6.07;3.80;;;;;;;10.26;95.71;101614.56;684622;28;5462;-53
2021/10/27 01:12:09;;;;;;;5.72;3.63;;;;;;;10.26;95.02;101613.66;684520;28;1362;-53
2021/10/27 01:12:29;;;;;;;6.22;3.85;;;;;;;10.27;94.58;101618.88;686612;28;1305;-54
2021/10/27 01:12:50;;;;;;;5.57;3.50;;;;;;;10.28;93.93;101622.41;687919;28;1169;-51
2021/10/27 01:13:13;;;;;;;5.97;3.47;;;;;;;10.28;93.86;101622.41;685886;28;1065;-54
2021/10/27 01:13:33;;;;;;;6.32;3.70;;;;;;;10.28;93.77;101619.78;684308;28;1021;-51
2021/10/27 01:13:53;;;;;;;5.85;3.40;;;;;;;10.30;94.40;101621.56;686163;28;3609;-54
2021/10/27 01:14:15;;;;;;;5.90;3.53;;;;;;;10.36;94.21;101620.78;686247;28;1116;-55
2021/10/27 01:14:37;;;;;;;5.45;3.42;;;;;;;10.38;94.54;101627.78;684217;28;1364;-56
2021/10/27 01:14:58;;;;;;;6.43;3.75;;;;;;;10.37;94.28;101622.53;685638;28;4614;-55
2021/10/27 01:15:19;;;;;;;7.83;4.00;;;;;;;10.38;94.54;101624.28;688151;28;1191;-53
2021/10/27 01:15:41;;;;;;;7.00;3.90;;;;;;;10.37;93.67;101631.25;686641;28;1298;-52
2021/10/27 01:16:01;;;;;;;6.70;3.70;;;;;;;10.36;93.45;101620.78;688200;28;1366;-55
2021/10/27 01:16:21;;;;;;;7.50;3.50;;;;;;;10.37;93.16;101617.28;687319;28;1315;-54
2021/10/27 01:16:43;;;;;;;8.15;3.60;;;;;;;10.37;92.99;101620.81;687614;28;1472;-53
2021/10/27 01:17:05;;;;;;;6.55;3.58;;;;;;;10.38;93.03;101619.06;687432;28;3294;-52
2021/10/27 01:17:25;;;;;;;5.93;3.47;;;;;;;10.37;92.60;101618.19;686835;28;1553;-56
2021/10/27 01:17:46;;;;;;;5.00;3.60;;;;;;;10.39;92.46;101620.81;686564;28;4488;-56
2021/10/27 01:18:07;;;;;;;5.23;3.40;;;;;;;10.38;92.60;101619.94;687213;28;1150;-53
2021/10/27 01:18:28;;;;;;;5.97;3.58;;;;;;;10.38;92.15;101613.81;688129;28;1219;-52
2021/10/27 01:18:53;;;;;;;5.85;3.42;;;;;;;10.40;91.92;101619.97;683725;28;1144;-54
2021/10/27 01:19:13;;;;;;;5.78;3.25;;;;;;;10.39;91.91;101620.81;685790;28;1213;-53
2021/10/27 01:19:49;;;;;;;7.10;3.57;;;;;;;10.39;92.27;101618.22;683680;28;1117;-52
2021/10/27 01:20:09;;;;;;;6.07;3.65;;;;;;;10.45;93.76;101620.88;682478;28;3321;-56
2021/10/27 01:20:30;;;;;;;6.37;3.90;;;;;;;10.45;94.36;101620.88;684977;28;2277;-55
2021/10/27 01:20:50;;;;;;;6.28;3.72;;;;;;;10.45;93.26;101618.25;687401;28;4475;-52
2021/10/27 01:21:11;;;;;;;5.73;3.60;;;;;;;10.44;93.70;101616.53;688758;28;1180;-55
2021/10/27 01:21:31;;;;;;;6.18;3.70;;;;;;;10.45;94.79;101614.78;687046;28;1227;-52
2021/10/27 01:21:53;;;;;;;6.57;3.90;;;;;;;10.56;94.84;101615.75;687558;28;1073;-52
2021/10/27 01:22:16;;;;;;;5.70;3.63;;;;;;;10.56;94.07;101614.06;687426;28;1236;-52
2021/10/27 01:22:39;;;;;;;7.05;3.45;;;;;;;10.53;93.63;101619.22;687420;28;1274;-53
2021/10/27 01:23:00;;;;;;;6.25;3.40;;;;;;;10.51;93.61;101613.13;688081;28;1473;-52
2021/10/27 01:23:22;;;;;;;5.90;3.40;;;;;;;10.51;93.17;101617.47;685217;28;3124;-56
2021/10/27 01:23:42;;;;;;;6.13;3.40;;;;;;;10.47;93.37;101608.72;684236;28;4210;-56
2021/10/27 01:24:03;;;;;;;5.97;3.50;;;;;;;10.45;93.47;101610.41;685701;28;4775;-53
2021/10/27 01:24:23;;;;;;;5.10;3.30;;;;;;;10.45;93.70;101607.81;684330;28;1208;-52
2021/10/27 01:24:44;;;;;;;6.30;3.55;;;;;;;10.44;92.95;101608.69;684966;28;1275;-54
2021/10/27 01:25:08;;;;;;;5.70;3.70;;;;;;;10.44;92.66;101613.91;686455;28;1327;-55
2021/10/27 01:25:28;;;;;;;6.13;3.45;;;;;;;10.43;94.09;101609.53;687303;28;1396;-53
2021/10/27 01:25:48;;;;;;;6.75;3.50;;;;;;;10.40;93.76;101612.13;685417;28;1119;-52
2021/10/27 01:26:09;;;;;;;6.10;3.40;;;;;;;10.39;94.22;101611.22;685978;28;1227;-56
2021/10/27 01:26:29;;;;;;;7.43;3.80;;;;;;;10.39;94.16;101608.63;685617;28;1243;-54
2021/10/27 01:26:50;;;;;;;6.80;3.57;;;;;;;10.38;94.55;101609.50;683268;28;4688;-53
2021/10/27 01:27:11;;;;;;;5.70;3.40;;;;;;;10.37;94.40;101606.84;684255;28;1252;-53
2021/10/27 01:27:31;;;;;;;6.07;3.45;;;;;;;10.37;94.08;101606.84;684197;28;1438;-52
2021/10/27 01:27:53;;;;;;;7.10;3.70;;;;;;;10.35;95.95;101609.44;686855;28;1455;-51
2021/10/27 01:28:14;;;;;;;7.15;3.80;;;;;;;10.34;95.80;101609.38;688152;28;1583;-55
2021/10/27 01:28:41;;;;;;;7.00;3.73;;;;;;;10.32;94.84;101606.75;687895;28;1138;-52
2021/10/27 01:29:02;;;;;;;7.18;3.40;;;;;;;10.33;93.56;101608.53;683032;28;2142;-52
2021/10/27 01:29:23;;;;;;;6.43;3.50;;;;;;;10.33;93.50;101610.28;684536;28;1228;-56
2021/10/27 01:29:43;;;;;;;5.82;3.40;;;;;;;10.34;93.12;101604.16;684994;28;1604;-54
2021/10/27 01:30:04;;;;;;;6.50;3.57;;;;;;;10.34;92.88;101607.72;680687;28;4459;-51
2021/10/27 01:30:25;;;;;;;6.30;3.80;;;;;;;10.36;92.54;101605.97;679622;28;1158;-54
2021/10/27 01:30:45;;;;;;;6.53;3.80;;;;;;;10.36;93.17;101605.97;679186;28;1462;-53
2021/10/27 01:31:06;;;;;;;6.35;3.60;;;;;;;10.37;95.02;101604.22;682870;28;1300;-53
2021/10/27 01:31:27;;;;;;;7.55;3.88;;;;;;;10.34;96.17;101606.78;681265;28;1240;-53
2021/10/27 01:31:49;;;;;;;6.95;3.80;;;;;;;10.36;95.61;101603.34;681680;28;1328;-54
2021/10/27 01:32:23;;;;;;;7.65;3.83;;;;;;;10.36;95.48;101610.34;685567;28;1243;-54
2021/10/27 01:32:45;;;;;;;6.65;3.70;;;;;;;10.35;94.42;101608.56;686573;28;1307;-52
2021/10/27 01:33:06;;;;;;;5.80;3.45;;;;;;;10.34;94.02;101606.78;686334;28;4659;-53
2021/10/27 01:33:26;;;;;;;5.93;3.55;;;;;;;10.35;93.73;101611.19;687677;28;3586;-53
2021/10/27 01:33:47;;;;;;;6.38;3.60;;;;;;;10.36;94.35;101605.97;686962;28;1419;-54
2021/10/27 01:34:07;;;;;;;6.43;3.70;;;;;;;10.35;94.67;101606.81;687928;28;1472;-53
2021/10/27 01:34:28;;;;;;;5.95;3.60;;;;;;;10.35;95.71;101603.34;687124;28;1282;-56
2021/10/27 01:34:49;;;;;;;6.40;3.60;;;;;;;10.38;95.28;101608.59;687738;28;1096;-55
2021/10/27 01:35:10;;;;;;;6.13;3.60;;;;;;;10.39;94.60;101606.00;688032;28;1267;-54
2021/10/27 01:35:30;;;;;;;5.22;3.25;;;;;;;10.41;94.56;101608.63;687875;28;1262;-55
2021/10/27 01:35:50;;;;;;;5.88;3.20;;;;;;;10.42;94.79;101610.38;686391;28;4530;-56
2021/10/27 01:36:16;;;;;;;5.57;3.20;;;;;;;10.42;93.78;101610.38;687403;28;1275;-53
2021/10/27 01:36:36;;;;;;;5.40;3.40;;;;;;;10.41;93.81;101606.00;686784;28;3784;-55
2021/10/27 01:36:57;;;;;;;4.90;3.30;;;;;;;10.42;94.83;101604.28;687518;28;1027;-55
2021/10/27 01:37:19;;;;;;;4.82;3.22;;;;;;;10.42;94.06;101607.78;684226;28;1114;-55
2021/10/27 01:37:40;;;;;;;5.72;3.30;;;;;;;10.41;93.50;101608.63;684490;28;1275;-54
2021/10/27 01:38:01;;;;;;;5.35;3.28;;;;;;;10.42;93.16;101610.38;684462;28;1421;-53
2021/10/27 01:38:22;;;;;;;5.15;3.40;;;;;;;10.40;93.22;101612.13;684609;28;1386;-52
2021/10/27 01:38:42;;;;;;;5.32;3.53;;;;;;;10.40;94.92;101606.91;684160;28;2924;-54
2021/10/27 01:39:03;;;;;;;6.47;3.53;;;;;;;10.39;94.16;101607.75;682437;28;4691;-53
2021/10/27 01:39:23;;;;;;;5.90;3.47;;;;;;;10.38;94.90;101611.22;685061;28;1512;-53
2021/10/27 01:39:43;;;;;;;6.53;3.50;;;;;;;10.38;94.04;101608.59;684414;28;3269;-53
2021/10/27 01:40:06;;;;;;;6.38;3.25;;;;;;;10.37;93.76;101607.72;684043;28;1211;-55
2021/10/27 01:40:26;;;;;;;6.10;3.50;;;;;;;10.38;93.08;101606.88;684110;28;1194;-52
2021/10/27 01:40:47;;;;;;;5.68;3.53;;;;;;;10.40;93.94;101614.75;685460;28;1100;-52
2021/10/27 01:41:07;;;;;;;6.47;3.30;;;;;;;10.39;93.35;101605.13;687983;28;1344;-53
2021/10/27 01:41:29;;;;;;;5.70;3.30;;;;;;;10.39;93.53;101610.38;688058;28;1144;-52
2021/10/27 01:41:50;;;;;;;5.38;3.15;;;;;;;10.40;92.93;101601.66;686427;28;4518;-52
2021/10/27 01:42:10;;;;;;;5.33;3.30;;;;;;;10.40;94.41;101609.50;684337;28;1514;-53
2021/10/27 01:42:31;;;;;;;5.22;3.40;;;;;;;10.40;94.20;101612.13;684531;28;1239;-56
2021/10/27 01:42:53;;;;;;;5.30;3.50;;;;;;;10.41;93.13;101613.00;684681;28;1872;-54
2021/10/27 01:43:13;;;;;;;5.32;3.40;;;;;;;10.41;92.57;101608.63;684512;28;1292;-56
2021/10/27 01:43:51;;;;;;;6.28;3.30;;;;;;;10.38;95.72;101613.81;685570;28;1233;-53
2021/10/27 01:44:11;;;;;;;5.82;3.50;;;;;;;10.39;95.82;101612.97;686469;28;1918;-52
2021/10/27 01:44:32;;;;;;;5.60;3.30;;;;;;;10.37;94.10;101610.34;688042;28;1305;-53
2021/10/27 01:44:52;;;;;;;5.10;3.40;;;;;;;10.42;95.29;101614.75;687062;28;4488;-56
2021/10/27 01:45:13;;;;;;;6.20;3.57;;;;;;;10.45;94.59;101604.31;688145;28;1199;-52